createdAt,value
2017-05-27T00:00:13.649Z,0
2017-05-27T00:10:13.691Z,0
2017-05-27T00:20:13.640Z,0
2017-05-27T00:30:13.700Z,0
2017-05-27T00:40:13.715Z,0
2017-05-27T00:50:13.643Z,0
2017-05-27T01:00:13.693Z,0
2017-05-27T01:10:13.668Z,0
2017-05-27T01:20:13.638Z,0
2017-05-27T01:30:13.692Z,0
2017-05-27T01:40:13.643Z,0
2017-05-27T01:50:13.706Z,0
2017-05-27T02:00:13.667Z,0
2017-05-27T02:10:13.635Z,0
2017-05-27T02:20:13.682Z,0
2017-05-27T02:30:13.643Z,4
2017-05-27T02:40:13.615Z,4
2017-05-27T02:50:13.683Z,16
2017-05-27T03:00:13.623Z,48
2017-05-27T03:10:13.720Z,140
2017-05-27T03:20:13.673Z,304
2017-05-27T03:30:13.610Z,564
2017-05-27T03:40:13.677Z,920
2017-05-27T03:50:13.661Z,1384
2017-05-27T04:00:13.610Z,2168
2017-05-27T04:10:13.723Z,2148
2017-05-27T04:20:13.614Z,2524
2017-05-27T04:30:13.697Z,2716
2017-05-27T04:40:13.698Z,3012
2017-05-27T04:50:13.609Z,3280
2017-05-27T05:00:13.680Z,3640
2017-05-27T05:10:13.645Z,4136
2017-05-27T05:20:13.591Z,3816
2017-05-27T05:30:13.663Z,3716
2017-05-27T05:40:13.654Z,4224
2017-05-27T05:50:13.694Z,5316
2017-05-27T06:00:13.644Z,8412
2017-05-27T06:10:13.630Z,53632
2017-05-27T06:20:13.580Z,48704
2017-05-27T06:30:13.636Z,70336
2017-05-27T06:40:13.606Z,62272
2017-05-27T06:50:13.677Z,64224
2017-05-27T07:00:13.609Z,52640
2017-05-27T07:10:13.606Z,54176
2017-05-27T07:20:13.651Z,58176
2017-05-27T07:30:13.647Z,62880
2017-05-27T07:40:13.619Z,71776
2017-05-27T07:50:13.619Z,73760
2017-05-27T08:00:13.614Z,75744
2017-05-27T08:10:13.637Z,82592
2017-05-27T08:20:13.634Z,88384
2017-05-27T08:30:13.661Z,96288
2017-05-27T08:40:13.635Z,90272
2017-05-27T08:50:13.640Z,89696
2017-05-27T09:00:13.659Z,5980
2017-05-27T09:10:13.650Z,4556
2017-05-27T09:20:13.673Z,4416
2017-05-27T09:30:13.651Z,4504
2017-05-27T09:40:13.659Z,4372
2017-05-27T09:50:13.668Z,4312
2017-05-27T10:00:13.666Z,4264
2017-05-27T10:10:13.676Z,4244
2017-05-27T10:20:13.667Z,4196
2017-05-27T10:30:13.658Z,4036
2017-05-27T10:40:13.710Z,3996
2017-05-27T10:50:13.672Z,3876
2017-05-27T11:00:13.663Z,3816
2017-05-27T11:10:13.712Z,3744
2017-05-27T11:20:13.705Z,3644
2017-05-27T11:30:13.694Z,3704
2017-05-27T11:40:13.703Z,3588
2017-05-27T11:50:13.685Z,3600
2017-05-27T12:00:13.693Z,3432
2017-05-27T12:10:13.673Z,3340
2017-05-27T12:20:13.692Z,3356
2017-05-27T12:30:13.687Z,3344
2017-05-27T12:40:13.680Z,3312
2017-05-27T12:50:13.693Z,3272
2017-05-27T13:00:13.686Z,3244
2017-05-27T13:10:13.702Z,3260
2017-05-27T13:20:13.686Z,3252
2017-05-27T13:30:13.700Z,3252
2017-05-27T13:40:13.770Z,3264
2017-05-27T13:50:13.689Z,3264
2017-05-27T14:00:13.685Z,3280
2017-05-27T14:10:13.702Z,3236
2017-05-27T14:20:13.728Z,3252
2017-05-27T14:30:13.718Z,3260
2017-05-27T14:40:13.704Z,3236
2017-05-27T14:50:13.723Z,3224
2017-05-27T15:00:13.711Z,3196
2017-05-27T15:10:13.737Z,3188
2017-05-27T15:20:13.734Z,3172
2017-05-27T15:30:13.736Z,3160
2017-05-27T15:40:13.770Z,3136
2017-05-27T15:50:13.742Z,3096
2017-05-27T16:00:13.721Z,3056
2017-05-27T16:10:13.738Z,3040
2017-05-27T16:20:13.747Z,3032
2017-05-27T16:30:13.729Z,2996
2017-05-27T16:40:14.336Z,3000
2017-05-27T16:50:13.749Z,2956
2017-05-27T17:00:13.752Z,2908
2017-05-27T17:10:13.808Z,2808
2017-05-27T17:20:13.760Z,2740
2017-05-27T17:30:13.771Z,2652
2017-05-27T17:40:13.733Z,2536
2017-05-27T17:50:13.754Z,2444
2017-05-27T18:00:13.751Z,2320
2017-05-27T18:10:13.771Z,2184
2017-05-27T18:20:13.771Z,2008
2017-05-27T18:30:13.746Z,1788
2017-05-27T18:40:13.819Z,1528
2017-05-27T18:50:13.834Z,1256
2017-05-27T19:00:13.778Z,988
2017-05-27T19:10:13.787Z,724
2017-05-27T19:20:13.796Z,456
2017-05-27T19:30:13.772Z,236
2017-05-27T19:40:13.781Z,108
2017-05-27T19:50:13.785Z,44
2017-05-27T20:00:13.781Z,16
2017-05-27T20:10:13.789Z,8
2017-05-27T20:20:13.781Z,4
2017-05-27T20:30:13.771Z,0
2017-05-27T20:40:13.785Z,0
2017-05-27T20:50:13.867Z,0
2017-05-27T21:00:13.819Z,0
2017-05-27T21:10:13.800Z,0
2017-05-27T21:20:13.778Z,0
2017-05-27T21:30:13.794Z,0
2017-05-27T21:40:13.784Z,4
2017-05-27T21:50:13.797Z,0
2017-05-27T22:00:13.805Z,0
2017-05-27T22:10:13.803Z,0
2017-05-27T22:20:13.784Z,0
2017-05-27T22:30:14.479Z,0
2017-05-27T22:40:13.805Z,4
2017-05-27T22:50:14.143Z,4
2017-05-27T23:00:13.799Z,0
2017-05-27T23:10:13.819Z,0
2017-05-27T23:20:13.799Z,0
2017-05-27T23:30:13.819Z,0
2017-05-27T23:40:13.818Z,0
2017-05-27T23:50:13.795Z,0
